Time;durP1;ratioP1;P1;durP2;ratioP2;P2;SDS_P1;SDS_P2;PMS_P1;PMS_P2;Temp;Humidity;BMP_temperature;BMP_pressure;BME280_temperature;BME280_humidity;BME280_pressure;Samples;Min_cycle;Max_cycle;Signal;HPM_P1;HPM_P2
2022/05/27 09:33:26;;;;;;;3.28;1.45;;;;;;;15.77;59.29;97122.97;2100855;27;20558;-61
2022/05/27 09:34:31;;;;;;;2.92;1.70;;;;;;;15.49;59.32;97114.03;2095080;28;20199;-61
2022/05/27 09:35:41;;;;;;;3.10;1.38;;;;;;;15.93;59.06;97128.19;2094749;28;20199;-61
2022/05/27 09:36:52;;;;;;;6.60;1.55;;;;;;;16.11;58.69;97123.66;2084020;28;20231;-61
2022/05/27 09:37:55;;;;;;;2.63;1.65;;;;;;;16.14;58.00;97127.88;2093827;28;20575;-61
2022/05/27 09:55:55;;;;;;;4.47;1.42;;;;;;;16.13;56.64;97119.13;2093131;27;20548;-61
2022/05/27 09:57:13;;;;;;;2.28;1.45;;;;;;;16.46;56.58;97120.66;2079412;28;20224;-62
2022/05/27 09:58:24;;;;;;;3.55;1.90;;;;;;;16.61;57.03;97116.25;2090889;28;20199;-61
2022/05/27 09:59:37;;;;;;;2.85;1.45;;;;;;;16.65;55.37;97115.09;2072445;28;20197;-61
2022/05/27 10:00:50;;;;;;;2.20;1.23;;;;;;;17.18;53.99;97117.16;2075765;28;20204;-61
2022/05/27 10:02:11;;;;;;;2.53;1.48;;;;;;;17.12;52.99;97113.09;2075170;28;20753;-61
2022/05/27 10:03:28;;;;;;;8.05;1.30;;;;;;;17.18;53.60;97111.00;2091267;28;20580;-61
2022/05/27 10:04:30;;;;;;;2.95;1.20;;;;;;;17.14;53.18;97110.34;2075876;28;20220;-61
2022/05/27 10:05:32;;;;;;;3.17;1.00;;;;;;;17.12;53.43;97104.34;2076438;28;20223;-61
2022/05/27 10:06:36;;;;;;;3.10;1.33;;;;;;;16.99;53.80;97096.38;2075257;28;20851;-61
2022/05/27 10:07:49;;;;;;;3.80;1.10;;;;;;;16.81;53.87;97106.22;2073248;28;20201;-61
2022/05/27 10:08:55;;;;;;;4.70;1.30;;;;;;;16.85;53.60;97104.25;2074233;28;20201;-61
2022/05/27 10:10:28;;;;;;;2.15;1.40;;;;;;;16.74;53.97;97102.31;2071158;28;20209;-61
2022/05/27 10:11:32;;;;;;;1.80;1.20;;;;;;;16.89;53.87;97097.88;2061178;28;20194;-60
2022/05/27 10:12:49;;;;;;;2.85;1.23;;;;;;;17.00;53.80;97095.44;2089042;28;20203;-61
2022/05/27 10:14:06;;;;;;;3.65;1.00;;;;;;;17.17;52.44;97104.88;2082742;28;20212;-61
2022/05/27 10:15:08;;;;;;;3.28;1.02;;;;;;;17.04;52.82;97089.00;2071572;28;20201;-60
2022/05/27 10:16:26;;;;;;;8.45;1.55;;;;;;;17.24;53.20;97094.78;2074293;28;20202;-61
2022/05/27 10:17:35;;;;;;;2.47;1.35;;;;;;;17.22;52.19;97086.97;2074019;28;20271;-60
2022/05/27 10:18:39;;;;;;;1.58;1.27;;;;;;;17.21;52.96;97095.00;2074746;28;20556;-60
2022/05/27 10:19:44;;;;;;;3.88;1.42;;;;;;;17.14;52.73;97090.09;2070241;28;20212;-61
2022/05/27 10:21:13;;;;;;;6.22;1.50;;;;;;;17.11;52.93;97086.81;2071890;28;20720;-61
2022/05/27 10:22:29;;;;;;;2.00;1.08;;;;;;;17.10;53.56;97093.91;2061250;28;20253;-61
2022/05/27 10:23:35;;;;;;;4.55;1.48;;;;;;;17.14;53.02;97091.88;2080600;28;20192;-60
2022/05/27 10:24:40;;;;;;;4.25;1.48;;;;;;;17.03;52.86;97089.13;2069910;28;20256;-61
2022/05/27 10:25:43;;;;;;;2.85;1.05;;;;;;;17.17;53.03;97082.94;2072037;28;20197;-60
2022/05/27 10:26:45;;;;;;;1.63;1.00;;;;;;;17.24;52.76;97079.81;2067609;28;20222;-61
2022/05/27 10:27:53;;;;;;;5.72;1.88;;;;;;;17.22;53.27;97083.50;2075932;28;20201;-61
2022/05/27 10:29:01;;;;;;;2.55;1.23;;;;;;;17.34;53.34;97085.31;2073061;28;20249;-61
2022/05/27 10:30:08;;;;;;;3.63;1.17;;;;;;;17.70;53.01;97086.50;2073234;28;20646;-61
2022/05/27 10:31:16;;;;;;;4.28;1.30;;;;;;;17.97;52.10;97084.75;2074303;28;20415;-61
2022/05/27 10:32:42;;;;;;;2.80;1.00;;;;;;;18.20;51.38;97084.03;2072179;28;20299;-61
2022/05/27 10:33:47;;;;;;;1.95;1.10;;;;;;;18.36;51.10;97085.63;2076981;28;20205;-61
2022/05/27 10:34:49;;;;;;;3.85;1.15;;;;;;;18.47;50.70;97088.38;2072616;28;20201;-61
2022/05/27 10:35:53;;;;;;;3.78;1.13;;;;;;;18.56;50.12;97084.25;2072770;28;20805;-61
2022/05/27 10:37:01;;;;;;;3.42;1.10;;;;;;;18.22;50.33;97081.28;2072710;28;20580;-61
2022/05/27 10:38:33;;;;;;;3.10;1.13;;;;;;;17.80;51.33;97097.28;2088835;28;20196;-61
2022/05/27 10:39:56;;;;;;;4.82;1.63;;;;;;;17.59;51.85;97092.47;2070876;28;20689;-61
2022/05/27 10:41:07;;;;;;;2.40;1.20;;;;;;;17.94;51.46;97091.97;2072223;28;20282;-60
2022/05/27 10:42:33;;;;;;;3.65;1.35;;;;;;;17.65;51.19;97085.09;2075441;28;20236;-61
2022/05/27 10:43:40;;;;;;;3.40;1.10;;;;;;;17.57;51.46;97094.41;2080258;28;20684;-61
2022/05/27 10:44:57;;;;;;;2.75;1.17;;;;;;;17.81;51.49;97087.56;2073718;28;20228;-61
2022/05/27 10:46:05;;;;;;;7.30;1.30;;;;;;;17.81;51.43;97087.56;2074848;28;20197;-61
2022/05/27 10:47:20;;;;;;;3.65;1.00;;;;;;;18.04;51.49;97086.91;2074930;28;20639;-61
2022/05/27 10:48:43;;;;;;;3.00;1.25;;;;;;;18.39;51.31;97082.78;2071586;28;20198;-61
2022/05/27 10:50:04;;;;;;;1.50;1.00;;;;;;;18.72;50.63;97084.03;2074216;28;20197;-61
2022/05/27 10:51:36;;;;;;;3.15;1.70;;;;;;;18.82;48.93;97081.56;2072898;28;20588;-61
2022/05/27 10:52:41;;;;;;;3.28;1.40;;;;;;;18.73;50.18;97075.97;2070240;28;20624;-61
2022/05/27 10:53:54;;;;;;;3.28;0.90;;;;;;;19.18;49.23;97074.59;2071728;28;20652;-61
2022/05/27 10:55:15;;;;;;;5.50;1.25;;;;;;;19.06;48.58;97071.06;2069222;28;20197;-61
2022/05/27 11:02:04;;;;;;;3.28;1.23;;;;;;;19.36;49.26;97080.34;2071982;28;20191;-61
2022/05/27 11:03:25;;;;;;;4.40;1.25;;;;;;;19.80;47.41;97064.78;2086424;28;20196;-61
2022/05/27 11:04:53;;;;;;;3.00;1.20;;;;;;;19.79;47.27;97068.38;2075010;28;20197;-61
2022/05/27 11:06:09;;;;;;;5.50;1.10;;;;;;;19.85;46.96;97071.44;2071896;28;20565;-61
2022/05/27 11:07:27;;;;;;;2.65;1.42;;;;;;;20.30;46.84;97061.88;2069766;28;20236;-61
2022/05/27 11:08:31;;;;;;;4.60;1.33;;;;;;;20.81;46.40;97064.09;2069102;28;20198;-61
2022/05/27 11:09:59;;;;;;;5.43;1.25;;;;;;;20.96;44.87;97069.97;2065096;28;20207;-61
2022/05/27 11:11:17;;;;;;;3.15;1.30;;;;;;;20.98;45.43;97069.84;2063223;28;20210;-61
2022/05/27 11:16:07;;;;;;;1.52;1.00;;;;;;;21.41;44.44;97063.69;2067015;28;20345;-61
2022/05/27 11:17:30;;;;;;;1.88;1.02;;;;;;;21.63;43.49;97060.13;2068773;28;20243;-61
2022/05/27 11:18:35;;;;;;;2.55;1.23;;;;;;;21.78;43.67;97067.81;2082019;28;20615;-61
2022/05/27 11:19:40;;;;;;;2.35;1.23;;;;;;;21.82;43.26;97064.75;2066604;28;20209;-61
2022/05/27 11:20:56;;;;;;;2.20;1.30;;;;;;;22.34;42.70;97061.28;2065723;28;20224;-63
2022/05/27 11:22:04;;;;;;;1.80;1.05;;;;;;;22.68;41.51;97066.38;2065576;28;20215;-63
2022/05/27 11:23:20;;;;;;;5.03;1.23;;;;;;;22.38;41.57;97061.91;2077051;28;20643;-63
2022/05/27 11:24:33;;;;;;;2.42;1.20;;;;;;;22.22;41.71;97057.88;2065739;28;20236;-63
2022/05/27 11:25:44;;;;;;;2.35;1.15;;;;;;;22.37;41.81;97050.41;2068389;28;20195;-63
2022/05/27 11:26:59;;;;;;;2.35;1.30;;;;;;;22.30;42.08;97052.72;2065847;28;20749;-63
2022/05/27 11:28:28;;;;;;;1.67;1.20;;;;;;;21.99;42.41;97062.47;2067390;28;20780;-63
2022/05/27 11:29:45;;;;;;;8.93;1.00;;;;;;;22.17;41.35;97060.09;2067601;28;20676;-63
2022/05/27 11:31:21;;;;;;;1.30;1.00;;;;;;;22.10;42.21;97059.75;2065142;28;20202;-62
2022/05/27 11:32:29;;;;;;;2.65;1.25;;;;;;;22.51;42.06;97062.53;2064725;28;20600;-63
2022/05/27 11:33:54;;;;;;;3.83;1.15;;;;;;;22.94;41.60;97056.13;2067100;28;20209;-63
2022/05/27 11:35:02;;;;;;;4.07;1.30;;;;;;;22.88;41.77;97058.47;2066781;28;20206;-63
2022/05/27 11:36:17;;;;;;;4.72;1.10;;;;;;;22.73;42.12;97055.31;2066684;28;20217;-63
2022/05/27 11:37:18;;;;;;;2.50;0.90;;;;;;;22.81;41.81;97063.50;2069445;28;20698;-63
2022/05/27 11:38:52;;;;;;;3.28;1.10;;;;;;;22.35;41.96;97052.34;2081226;28;20255;-63
2022/05/27 11:40:15;;;;;;;7.45;1.30;;;;;;;21.58;42.96;97058.84;2065915;28;20190;-64
2022/05/27 11:41:28;;;;;;;2.67;1.27;;;;;;;21.58;43.26;97059.66;2061964;28;20199;-63
2022/05/27 11:42:45;;;;;;;1.75;0.82;;;;;;;21.61;42.91;97055.91;2075715;28;20225;-63
2022/05/27 11:44:01;;;;;;;2.08;1.25;;;;;;;21.84;43.05;97064.66;2074118;28;20201;-63
2022/05/27 11:45:19;;;;;;;3.00;1.10;;;;;;;21.64;42.58;97047.72;2073345;28;20208;-63
2022/05/27 11:46:23;;;;;;;1.40;1.10;;;;;;;22.14;41.79;97049.72;2077342;28;20248;-63
2022/05/27 11:47:50;;;;;;;3.50;1.30;;;;;;;22.23;41.66;97048.91;2073358;28;20201;-63
2022/05/27 11:48:54;;;;;;;2.83;1.48;;;;;;;21.88;42.00;97049.25;2081864;28;20196;-63
2022/05/27 11:50:35;;;;;;;1.65;1.17;;;;;;;22.47;40.89;97037.16;2078309;28;20229;-63
2022/05/27 11:51:55;;;;;;;2.45;1.05;;;;;;;23.30;40.95;97051.16;2067799;28;20201;-63
2022/05/27 11:53:24;;;;;;;7.55;1.25;;;;;;;23.08;40.66;97038.88;2073885;28;20190;-63
2022/05/27 11:54:37;;;;;;;1.58;1.17;;;;;;;22.47;41.30;97042.47;2065186;28;20198;-63
2022/05/27 11:56:09;;;;;;;2.55;1.20;;;;;;;22.31;41.31;97038.47;2047305;29;20235;-63
2022/05/27 11:57:31;;;;;;;3.10;1.10;;;;;;;22.47;42.09;97042.47;2063879;28;20255;-63
2022/05/27 11:59:03;;;;;;;2.08;1.10;;;;;;;22.08;41.92;97045.78;2080491;28;21140;-63
2022/05/27 12:00:11;;;;;;;2.80;1.10;;;;;;;21.39;42.82;97038.25;2075894;28;20193;-63
2022/05/27 12:01:36;;;;;;;4.20;1.20;;;;;;;21.31;44.04;97030.91;2076614;28;20201;-63
2022/05/27 12:03:00;;;;;;;2.50;1.45;;;;;;;21.32;43.89;97033.44;2074901;28;20213;-63
2022/05/27 12:04:09;;;;;;;2.35;1.00;;;;;;;21.37;44.64;97025.09;2075811;28;20201;-63
2022/05/27 12:05:19;;;;;;;1.30;1.10;;;;;;;21.30;44.26;97024.72;2064601;28;20259;-63
2022/05/27 12:07:11;;;;;;;1.60;1.15;;;;;;;20.96;44.95;97024.00;2068926;28;20190;-63
2022/05/27 12:08:36;;;;;;;1.63;0.90;;;;;;;20.66;45.71;97028.97;2050753;28;20209;-63
2022/05/27 12:09:48;;;;;;;2.30;1.10;;;;;;;20.55;45.67;97029.81;2072265;28;20194;-63
2022/05/27 12:11:07;;;;;;;2.15;1.05;;;;;;;20.72;46.07;97025.00;2078106;28;20206;-63
2022/05/27 12:12:14;;;;;;;1.40;0.95;;;;;;;20.34;46.14;97029.72;2076592;28;20616;-63
2022/05/27 12:13:28;;;;;;;2.55;1.10;;;;;;;19.90;46.85;97034.00;2084873;28;20197;-63
2022/05/27 12:14:38;;;;;;;2.67;1.05;;;;;;;19.84;46.98;97024.69;2077361;28;20192;-62
2022/05/27 12:15:46;;;;;;;2.03;1.10;;;;;;;19.68;47.33;97019.69;2076192;28;20661;-62
2022/05/27 12:16:51;;;;;;;3.55;1.00;;;;;;;19.81;47.39;97024.06;2069787;28;20224;-62
2022/05/27 12:18:00;;;;;;;2.78;1.20;;;;;;;19.99;47.63;97020.03;2082454;28;20208;-61
2022/05/27 12:19:12;;;;;;;3.83;1.00;;;;;;;19.92;47.18;97021.44;2077744;28;20225;-62
2022/05/27 12:20:28;;;;;;;9.05;1.92;;;;;;;20.13;47.14;97023.44;2072846;28;20845;-62
2022/05/27 12:21:38;;;;;;;1.42;0.88;;;;;;;20.30;47.16;97019.44;2069438;28;20312;-62
2022/05/27 12:22:40;;;;;;;5.07;0.90;;;;;;;20.37;46.73;97020.66;2080436;28;20200;-62
2022/05/27 12:23:53;;;;;;;2.45;1.00;;;;;;;20.08;47.50;97018.47;2079678;28;20200;-61
2022/05/27 12:24:59;;;;;;;1.80;1.08;;;;;;;20.13;47.21;97026.06;2075127;28;20240;-61
2022/05/27 12:26:01;;;;;;;2.20;0.98;;;;;;;20.11;47.23;97020.88;2075838;28;20685;-61
2022/05/27 12:27:04;;;;;;;2.10;1.10;;;;;;;20.00;47.38;97024.38;2074570;28;20225;-62
2022/05/27 12:28:07;;;;;;;2.45;1.17;;;;;;;19.86;47.76;97025.44;2072657;28;20197;-61
2022/05/27 12:29:11;;;;;;;2.10;1.00;;;;;;;19.59;47.67;97030.97;2071892;28;20194;-62
2022/05/27 12:30:16;;;;;;;2.53;1.05;;;;;;;19.00;48.96;97023.88;2073168;28;20543;-62
2022/05/27 12:31:18;;;;;;;1.90;1.10;;;;;;;18.96;49.71;97025.03;2075727;28;20826;-62
2022/05/27 12:32:24;;;;;;;2.33;1.40;;;;;;;18.93;49.75;97028.75;2053583;28;20238;-62
2022/05/27 12:33:27;;;;;;;5.40;1.20;;;;;;;18.92;49.07;97030.56;2064316;28;20198;-61
2022/05/27 12:34:29;;;;;;;3.78;1.30;;;;;;;18.92;49.11;97024.44;2078145;28;20201;-62
2022/05/27 12:35:33;;;;;;;4.55;1.60;;;;;;;19.05;48.98;97025.22;2076580;28;20201;-61
2022/05/27 12:36:35;;;;;;;3.75;1.05;;;;;;;19.00;48.95;97030.00;2068996;28;20209;-62
2022/05/27 12:37:48;;;;;;;1.90;1.00;;;;;;;18.76;49.02;97028.13;2080492;28;20193;-62
2022/05/27 12:38:53;;;;;;;1.38;0.90;;;;;;;18.69;49.61;97029.53;2076060;28;20204;-62
2022/05/27 12:40:20;;;;;;;4.28;1.27;;;;;;;18.65;49.74;97029.84;2072611;28;20201;-61
2022/05/27 12:41:38;;;;;;;1.13;0.90;;;;;;;19.04;48.96;97033.25;2056440;28;20206;-61
2022/05/27 12:42:42;;;;;;;11.65;1.33;;;;;;;19.01;49.49;97033.50;2081214;28;20794;-61
2022/05/27 12:44:00;;;;;;;2.55;1.30;;;;;;;19.33;48.68;97035.59;2083071;28;20579;-62
2022/05/27 12:45:27;;;;;;;2.55;1.17;;;;;;;19.29;49.29;97029.66;2078439;28;20200;-62
2022/05/27 12:46:39;;;;;;;2.97;1.10;;;;;;;19.31;49.27;97026.91;2076991;28;20198;-62
2022/05/27 12:47:40;;;;;;;1.48;1.10;;;;;;;18.91;49.45;97035.97;2056055;28;20203;-62
2022/05/27 12:48:44;;;;;;;6.18;1.30;;;;;;;18.72;49.58;97033.75;2058283;28;20207;-62
2022/05/27 12:50:01;;;;;;;1.70;1.52;;;;;;;18.70;49.66;97018.00;2074934;28;20209;-63
2022/05/27 12:51:06;;;;;;;3.70;2.53;;;;;;;18.60;50.24;97024.88;2072798;28;20251;-62
2022/05/27 12:52:28;;;;;;;5.88;3.70;;;;;;;18.74;50.08;97024.75;2067236;28;20292;-62
2022/05/27 12:53:45;;;;;;;3.35;1.30;;;;;;;18.63;49.88;97019.41;2081625;28;20201;-62
2022/05/27 12:54:48;;;;;;;2.83;1.30;;;;;;;18.68;50.49;97022.56;2076079;28;20578;-61
2022/05/27 13:01:04;;;;;;;1.52;1.10;;;;;;;18.67;50.22;97023.50;2075718;28;20712;-61
2022/05/27 13:02:14;;;;;;;1.92;1.00;;;;;;;18.77;50.76;97035.13;2071069;28;20773;-62
2022/05/27 13:03:34;;;;;;;2.88;1.50;;;;;;;18.73;50.69;97028.34;2084056;28;20227;-61
2022/05/27 13:04:48;;;;;;;3.55;1.00;;;;;;;19.05;49.63;97027.84;2071242;28;20646;-61
2022/05/27 13:06:14;;;;;;;4.03;1.23;;;;;;;18.66;49.83;97018.34;2072791;28;20263;-62
2022/05/27 13:07:32;;;;;;;2.58;1.02;;;;;;;18.55;50.74;97029.66;2069748;28;20962;-61
2022/05/27 13:08:50;;;;;;;3.63;1.50;;;;;;;18.64;50.56;97025.50;2073797;28;20197;-62
2022/05/27 13:09:52;;;;;;;2.53;1.20;;;;;;;18.39;50.22;97024.63;2074333;28;20197;-62
2022/05/27 13:10:53;;;;;;;2.38;1.00;;;;;;;18.22;50.99;97031.94;2077112;28;20213;-62
2022/05/27 13:11:55;;;;;;;2.20;1.30;;;;;;;18.16;51.27;97013.03;2070504;28;20220;-61
2022/05/27 13:13:06;;;;;;;1.10;1.00;;;;;;;18.10;51.42;97023.03;2082760;28;20210;-61
2022/05/27 13:14:22;;;;;;;2.95;0.90;;;;;;;18.13;51.53;97016.69;2077001;28;20196;-61
2022/05/27 13:15:44;;;;;;;2.17;1.00;;;;;;;18.52;51.35;97027.25;2074800;28;20237;-61
2022/05/27 13:17:04;;;;;;;2.83;1.10;;;;;;;18.32;50.74;97028.66;2068042;28;20228;-61
2022/05/27 13:18:19;;;;;;;11.52;3.90;;;;;;;18.32;50.95;97026.88;2082563;28;20208;-62
2022/05/27 13:19:33;;;;;;;4.07;2.97;;;;;;;18.48;51.53;97031.06;2073828;28;20270;-62
2022/05/27 13:20:54;;;;;;;2.47;1.50;;;;;;;18.43;51.60;97034.03;2072372;28;20638;-62
2022/05/27 13:21:58;;;;;;;1.38;1.02;;;;;;;18.46;51.73;97023.22;2066569;28;20228;-62
2022/05/27 13:23:16;;;;;;;3.45;1.30;;;;;;;18.51;51.71;97025.56;2080024;28;20201;-62
2022/05/27 13:24:18;;;;;;;2.47;0.98;;;;;;;18.53;51.99;97027.13;2076515;28;20197;-62
2022/05/27 13:25:19;;;;;;;4.25;1.08;;;;;;;18.39;51.95;97028.09;2074367;28;20215;-62
2022/05/27 13:26:54;;;;;;;2.97;1.10;;;;;;;18.65;51.72;97021.94;2074765;28;20197;-62
2022/05/27 13:27:59;;;;;;;1.45;0.85;;;;;;;18.46;51.62;97025.03;2077663;28;20430;-62
2022/05/27 13:29:01;;;;;;;3.20;1.20;;;;;;;18.47;51.88;97030.22;2070881;28;20202;-62
2022/05/27 13:30:13;;;;;;;5.82;1.10;;;;;;;18.42;51.84;97035.84;2070971;28;20328;-63
2022/05/27 13:31:24;;;;;;;1.70;1.10;;;;;;;18.43;51.97;97013.72;2073795;28;20198;-60
2022/05/27 13:32:33;;;;;;;10.50;1.25;;;;;;;18.71;51.65;97018.84;2073452;28;20281;-59
2022/05/27 13:33:37;;;;;;;12.05;1.23;;;;;;;18.71;51.84;97024.13;2074608;28;20673;-60
2022/05/27 13:34:49;;;;;;;2.45;0.85;;;;;;;19.02;51.42;97028.09;2070725;28;20197;-59
2022/05/27 13:35:52;;;;;;;1.10;0.77;;;;;;;18.82;51.89;97032.16;2073807;28;20202;-59
2022/05/27 13:37:00;;;;;;;2.70;0.80;;;;;;;18.76;51.64;97030.78;2066428;28;20274;-59
2022/05/27 13:38:03;;;;;;;4.00;0.90;;;;;;;18.78;51.89;97025.41;2081833;28;20207;-59
2022/05/27 13:39:09;;;;;;;3.30;0.98;;;;;;;18.29;52.15;97029.72;2074948;28;20202;-60
2022/05/27 13:40:30;;;;;;;1.48;1.00;;;;;;;17.82;53.40;97012.69;2075982;28;20540;-59
2022/05/27 13:41:48;;;;;;;3.90;1.30;;;;;;;18.14;53.72;97025.50;2070416;28;20201;-58
2022/05/27 13:43:06;;;;;;;3.72;0.80;;;;;;;18.07;52.93;97025.91;2079606;28;20200;-59
2022/05/27 13:44:13;;;;;;;5.82;1.00;;;;;;;17.92;53.30;97025.13;2073383;28;20696;-59
2022/05/27 13:45:27;;;;;;;19.23;1.33;;;;;;;18.14;53.72;97036.06;2072928;28;20635;-59
2022/05/27 13:46:38;;;;;;;3.17;1.10;;;;;;;18.08;53.58;97018.81;2073764;28;20196;-59
2022/05/27 13:47:46;;;;;;;3.50;1.10;;;;;;;17.98;53.65;97030.97;2076018;28;20652;-59
2022/05/27 13:48:53;;;;;;;2.88;1.38;;;;;;;18.19;53.56;97033.94;2070532;28;20221;-59
2022/05/27 13:49:54;;;;;;;7.45;1.10;;;;;;;18.12;53.80;97033.53;2074204;28;20573;-59
2022/05/27 13:51:16;;;;;;;2.20;1.35;;;;;;;18.31;53.48;97032.22;2075147;28;20221;-59
2022/05/27 13:52:32;;;;;;;9.32;1.42;;;;;;;18.34;53.18;97024.09;2071277;28;20228;-59
2022/05/27 13:53:38;;;;;;;2.85;1.38;;;;;;;18.26;53.33;97025.47;2081923;28;20774;-59
2022/05/27 13:54:43;;;;;;;3.17;1.35;;;;;;;18.63;52.27;97023.81;2073835;28;20764;-59
2022/05/27 13:55:46;;;;;;;7.68;2.03;;;;;;;18.70;52.60;97025.94;2072809;28;20233;-59
2022/05/27 13:56:55;;;;;;;2.67;1.17;;;;;;;18.53;52.59;97034.22;2069340;28;20216;-59
2022/05/27 13:58:02;;;;;;;2.83;1.33;;;;;;;18.61;52.60;97023.94;2082806;28;20309;-59
2022/05/27 13:59:12;;;;;;;2.65;1.67;;;;;;;18.76;52.52;97035.22;2077398;28;20201;-59
2022/05/27 14:00:18;;;;;;;6.82;1.30;;;;;;;18.57;52.62;97030.41;2076035;28;20423;-59
2022/05/27 14:01:25;;;;;;;7.57;1.52;;;;;;;18.60;53.33;97033.69;2072931;28;20197;-59
2022/05/27 14:02:32;;;;;;;6.30;1.70;;;;;;;18.74;53.09;97038.00;2075611;28;20247;-59
2022/05/27 14:04:13;;;;;;;1.80;1.20;;;;;;;18.54;52.74;97041.22;2070171;28;20213;-59
2022/05/27 14:05:22;;;;;;;5.00;1.65;;;;;;;18.37;53.57;97040.59;2071112;28;20227;-59
2022/05/27 14:06:29;;;;;;;8.73;1.90;;;;;;;18.13;53.88;97032.56;2065572;28;20688;-59
2022/05/27 14:07:35;;;;;;;3.00;1.52;;;;;;;18.01;54.37;97030.78;2066318;28;20708;-59
2022/05/27 14:08:43;;;;;;;4.22;1.70;;;;;;;17.90;54.89;97037.63;2072543;28;20558;-59
2022/05/27 14:09:57;;;;;;;2.13;1.38;;;;;;;18.09;54.64;97033.72;2072764;28;20649;-59
2022/05/27 14:10:58;;;;;;;12.88;1.90;;;;;;;18.08;54.58;97038.19;2075551;28;20290;-59
2022/05/27 14:12:02;;;;;;;7.68;1.10;;;;;;;18.16;54.71;97039.47;2070760;28;20219;-59
2022/05/27 14:13:20;;;;;;;5.20;1.60;;;;;;;18.18;54.45;97030.47;2075581;28;20251;-60
2022/05/27 14:14:41;;;;;;;4.15;2.10;;;;;;;18.29;53.87;97029.72;2070038;28;20198;-59
2022/05/27 14:15:42;;;;;;;2.65;1.70;;;;;;;18.05;54.52;97029.63;2076427;28;20193;-59
2022/05/27 14:16:44;;;;;;;2.65;1.30;;;;;;;18.20;54.30;97031.19;2070116;28;20350;-59
2022/05/27 14:17:49;;;;;;;2.10;1.10;;;;;;;18.19;55.03;97029.50;2082411;28;20826;-59
2022/05/27 14:18:52;;;;;;;1.83;1.33;;;;;;;18.70;53.76;97028.59;2075154;28;20649;-59
2022/05/27 14:20:04;;;;;;;4.68;1.20;;;;;;;18.79;54.13;97044.75;2075367;28;20552;-59
2022/05/27 14:22:44;;;;;;;4.28;1.23;;;;;;;18.95;53.69;97033.94;2076187;28;20209;-59
2022/05/27 14:23:46;;;;;;;2.55;1.20;;;;;;;18.24;55.04;97037.13;2073422;28;20209;-59
2022/05/27 14:24:47;;;;;;;3.25;1.40;;;;;;;18.43;54.17;97029.56;2070591;28;20201;-59
2022/05/27 14:25:54;;;;;;;3.45;1.00;;;;;;;18.51;54.49;97041.41;2073148;28;20201;-59
2022/05/27 14:26:55;;;;;;;2.95;0.95;;;;;;;18.24;54.50;97023.91;2057967;28;20219;-59
2022/05/27 14:28:24;;;;;;;9.13;1.52;;;;;;;18.07;55.52;97036.47;2056838;28;20195;-59
2022/05/27 14:29:26;;;;;;;4.80;1.23;;;;;;;17.99;55.28;97032.66;2073838;28;20201;-59
2022/05/27 14:30:33;;;;;;;1.50;1.00;;;;;;;17.98;55.66;97038.91;2074812;28;20212;-59
2022/05/27 14:31:38;;;;;;;1.55;0.95;;;;;;;17.97;56.32;97037.19;2067549;28;20189;-58
2022/05/27 14:32:40;;;;;;;1.55;1.23;;;;;;;17.98;56.14;97037.13;2079351;28;20204;-59
2022/05/27 14:33:51;;;;;;;2.15;1.35;;;;;;;18.03;55.87;97034.16;2079250;28;20680;-59
2022/05/27 14:34:55;;;;;;;4.15;1.20;;;;;;;18.39;55.85;97038.69;2076875;28;20202;-59
2022/05/27 14:36:00;;;;;;;3.63;1.10;;;;;;;17.99;55.94;97033.53;2072119;28;20198;-59
2022/05/27 14:37:07;;;;;;;1.85;1.13;;;;;;;18.02;56.28;97029.84;2067266;28;20294;-59
2022/05/27 14:38:16;;;;;;;3.38;1.30;;;;;;;18.32;55.99;97037.44;2085726;28;20614;-59
2022/05/27 14:39:18;;;;;;;10.45;5.57;;;;;;;18.35;55.15;97031.91;2071551;28;20205;-59
2022/05/27 14:40:25;;;;;;;3.90;1.20;;;;;;;18.09;55.79;97025.81;2072174;28;20579;-59
2022/05/27 14:41:38;;;;;;;1.55;1.20;;;;;;;17.68;56.84;97027.66;2067469;28;20202;-59
2022/05/27 14:42:41;;;;;;;3.53;0.90;;;;;;;17.93;56.74;97026.00;2069171;28;20198;-59
2022/05/27 14:43:47;;;;;;;5.78;1.00;;;;;;;17.81;56.40;97038.22;2074022;28;20201;-59
2022/05/27 14:44:51;;;;;;;2.00;0.95;;;;;;;17.83;56.17;97017.00;2073665;28;20193;-59
2022/05/27 14:45:58;;;;;;;2.75;1.00;;;;;;;17.90;56.20;97037.63;2076571;28;20198;-59
2022/05/27 14:47:27;;;;;;;1.60;1.00;;;;;;;17.88;57.04;97036.88;2073552;28;20224;-59
2022/05/27 14:48:35;;;;;;;2.33;1.10;;;;;;;17.89;57.08;97040.34;2072778;28;20201;-59
2022/05/27 14:49:50;;;;;;;2.20;1.00;;;;;;;18.04;56.53;97039.34;2076731;28;20206;-59
2022/05/27 14:50:53;;;;;;;1.77;1.10;;;;;;;18.00;56.17;97040.50;2075449;28;20558;-59
2022/05/27 14:51:55;;;;;;;5.25;1.00;;;;;;;17.95;56.66;97037.31;2072018;28;20245;-59
2022/05/27 14:53:04;;;;;;;3.55;1.05;;;;;;;17.89;56.38;97035.91;2080708;28;20279;-59
2022/05/27 14:54:21;;;;;;;2.25;1.30;;;;;;;17.92;55.65;97043.63;2079352;28;20204;-59
2022/05/27 14:55:25;;;;;;;1.55;0.90;;;;;;;17.85;55.30;97036.22;2076272;28;20236;-59
2022/05/27 14:56:29;;;;;;;1.30;0.90;;;;;;;17.67;55.73;97043.59;2061507;28;20209;-59
2022/05/27 14:57:38;;;;;;;5.40;1.27;;;;;;;17.66;56.13;97032.22;2079882;28;20212;-59
2022/05/27 14:58:39;;;;;;;1.80;1.25;;;;;;;17.64;55.93;97034.09;2080633;28;20201;-59
2022/05/27 15:00:04;;;;;;;3.67;1.30;;;;;;;18.23;55.21;97032.78;2074949;28;20224;-59
2022/05/27 15:01:15;;;;;;;1.52;0.95;;;;;;;18.63;54.44;97029.09;2074457;28;20209;-59
2022/05/27 15:02:27;;;;;;;2.67;1.20;;;;;;;18.84;54.12;97024.09;2072882;28;20279;-59
2022/05/27 15:03:35;;;;;;;4.75;1.35;;;;;;;18.44;54.89;97025.16;2070749;28;20201;-59
2022/05/27 15:04:36;;;;;;;4.43;1.58;;;;;;;18.51;54.81;97022.91;2075935;28;20201;-59
2022/05/27 15:05:38;;;;;;;1.70;1.17;;;;;;;18.76;54.40;97027.28;2076990;28;20240;-59
2022/05/27 15:06:44;;;;;;;4.63;1.23;;;;;;;18.70;53.88;97020.66;2067935;28;20669;-59
2022/05/27 15:07:51;;;;;;;1.98;1.52;;;;;;;18.49;54.55;97035.41;2082243;28;20196;-59
2022/05/27 15:09:35;;;;;;;6.38;1.50;;;;;;;19.20;53.66;97027.72;2073368;28;20209;-59
2022/05/27 15:10:40;;;;;;;1.98;1.30;;;;;;;18.82;53.60;97031.31;2064424;28;20205;-59
2022/05/27 15:11:41;;;;;;;5.95;1.10;;;;;;;18.57;53.95;97019.81;2070154;28;20221;-59
2022/05/27 15:12:43;;;;;;;2.15;1.17;;;;;;;18.79;53.74;97020.94;2085834;28;20192;-59
2022/05/27 15:13:51;;;;;;;3.92;1.83;;;;;;;18.89;53.47;97014.03;2080858;28;20197;-59
2022/05/27 15:14:53;;;;;;;1.80;1.10;;;;;;;19.07;52.94;97023.31;2077794;28;20201;-59
2022/05/27 15:16:08;;;;;;;5.22;1.33;;;;;;;18.58;54.46;97021.53;2055989;28;20250;-59
2022/05/27 15:17:31;;;;;;;4.60;1.20;;;;;;;18.51;54.39;97009.69;2056736;28;20221;-59
2022/05/27 15:18:33;;;;;;;1.55;1.45;;;;;;;18.33;54.93;97023.25;2078891;28;20219;-59
2022/05/27 15:19:41;;;;;;;2.72;1.20;;;;;;;18.40;54.76;97027.16;2071320;28;20206;-59
2022/05/27 15:20:56;;;;;;;2.78;1.33;;;;;;;18.26;55.47;97022.00;2073003;28;20194;-60
2022/05/27 15:22:07;;;;;;;1.58;1.13;;;;;;;18.59;55.17;97007.34;2075554;28;20224;-59
2022/05/27 15:23:10;;;;;;;1.67;1.10;;;;;;;18.67;54.41;97015.56;2077092;28;20223;-59
2022/05/27 15:24:21;;;;;;;3.92;1.40;;;;;;;18.66;54.31;97013.03;2078604;28;20206;-59
2022/05/27 15:25:29;;;;;;;2.15;1.30;;;;;;;18.32;54.86;97015.44;2072586;28;20202;-62
2022/05/27 15:33:43;;;;;;;1.40;0.90;;;;;;;18.89;52.38;97009.59;2078662;28;20205;-62
2022/05/27 15:34:53;;;;;;;2.85;1.10;;;;;;;19.27;51.68;97001.63;2072261;28;20202;-62
2022/05/27 15:35:56;;;;;;;2.00;1.02;;;;;;;18.81;52.66;96997.88;2077823;28;20200;-62
2022/05/27 15:36:58;;;;;;;2.05;1.48;;;;;;;18.92;52.78;96993.50;2066124;28;20719;-61
2022/05/27 15:37:59;;;;;;;1.58;1.23;;;;;;;18.89;52.47;96991.06;2081163;28;20212;-62
2022/05/27 15:39:03;;;;;;;1.60;1.10;;;;;;;18.82;52.46;96989.81;2077120;28;20219;-62
2022/05/27 15:40:09;;;;;;;5.28;0.82;;;;;;;18.51;53.09;96977.97;2072850;28;20201;-61
2022/05/27 15:41:11;;;;;;;2.28;1.00;;;;;;;18.99;52.18;96978.03;2074369;28;20201;-61
2022/05/27 15:42:14;;;;;;;8.88;1.13;;;;;;;19.37;51.82;96987.56;2073434;28;20696;-61
2022/05/27 15:43:31;;;;;;;2.00;1.10;;;;;;;19.30;51.32;96994.28;2067333;28;20194;-61
2022/05/27 15:44:33;;;;;;;1.00;0.70;;;;;;;19.22;51.83;96986.94;2069210;28;20206;-61
2022/05/27 15:45:34;;;;;;;2.00;1.02;;;;;;;19.33;51.47;96999.34;2075102;28;20201;-61
2022/05/27 15:46:36;;;;;;;2.03;0.90;;;;;;;18.92;52.05;96987.38;2067355;28;20558;-62
2022/05/27 15:47:38;;;;;;;0.90;0.70;;;;;;;18.52;52.56;96996.34;2080940;28;20236;-61
2022/05/27 15:48:40;;;;;;;1.75;1.08;;;;;;;18.52;53.26;96993.69;2078108;28;20193;-61